createdAt,value
2019-05-21T00:00:45.102Z,7.60
2019-05-21T00:02:47.141Z,7.13
2019-05-21T00:04:49.534Z,7.53
2019-05-21T00:06:51.596Z,8.17
2019-05-21T00:08:53.614Z,7.60
2019-05-21T00:10:58.677Z,6.93
2019-05-21T00:13:00.714Z,7.70
2019-05-21T00:15:10.139Z,7.03
2019-05-21T00:17:12.170Z,7.07
2019-05-21T00:19:14.219Z,9.27
2019-05-21T00:21:18.965Z,9.40
2019-05-21T00:23:20.658Z,8.67
2019-05-21T00:25:22.409Z,17.40
2019-05-21T00:27:24.213Z,11.07
2019-05-21T00:30:02.805Z,12.70
2019-05-21T00:32:41.397Z,8.57
2019-05-21T00:35:22.161Z,8.00
2019-05-21T00:38:01.166Z,9.13
2019-05-21T00:40:39.849Z,10.20
2019-05-21T00:42:44.169Z,9.33
2019-05-21T00:44:46.013Z,8.03
2019-05-21T00:46:47.906Z,10.73
2019-05-21T00:48:49.744Z,12.07
2019-05-21T00:50:51.493Z,25.70
2019-05-21T00:52:53.369Z,10.70
2019-05-21T00:54:55.307Z,14.77
2019-05-21T00:56:57.110Z,11.13
2019-05-21T00:58:58.860Z,10.70
2019-05-21T01:01:00.906Z,9.10
2019-05-21T01:03:02.731Z,8.27
2019-05-21T01:05:04.830Z,10.00
2019-05-21T01:07:06.750Z,9.23
2019-05-21T01:09:08.666Z,9.07
2019-05-21T01:11:10.546Z,9.17
2019-05-21T01:13:12.258Z,8.80
2019-05-21T01:15:14.178Z,12.40
2019-05-21T01:17:16.011Z,9.73
2019-05-21T01:19:17.821Z,11.60
2019-05-21T01:21:19.570Z,10.90
2019-05-21T01:23:21.429Z,9.30
2019-05-21T01:25:23.228Z,9.80
2019-05-21T01:27:24.934Z,10.33
2019-05-21T01:29:29.949Z,9.30
2019-05-21T01:31:31.677Z,10.20
2019-05-21T01:33:33.382Z,11.43
2019-05-21T01:35:35.294Z,10.20
2019-05-21T01:37:37.003Z,15.13
2019-05-21T01:39:38.819Z,11.10
2019-05-21T01:41:40.551Z,12.60
2019-05-21T01:43:46.417Z,11.23
2019-05-21T01:45:48.337Z,25.53
2019-05-21T01:47:50.069Z,20.10
2019-05-21T01:50:33.267Z,21.97
2019-05-21T01:52:35.418Z,19.30
2019-05-21T01:55:16.873Z,14.67
2019-05-21T01:57:09.982Z,15.03
2019-05-21T01:59:11.906Z,14.97
2019-05-21T02:04:50.175Z,12.90
2019-05-21T02:06:52.248Z,12.47
2019-05-21T02:08:54.194Z,11.73
2019-05-21T02:10:55.929Z,13.53
2019-05-21T02:12:57.650Z,13.93
2019-05-21T02:14:59.481Z,14.47
2019-05-21T02:17:01.508Z,12.33
2019-05-21T02:19:03.485Z,13.43
2019-05-21T02:21:05.210Z,14.07
2019-05-21T02:23:07.126Z,13.93
2019-05-21T02:25:09.343Z,15.60
2019-05-21T02:27:11.105Z,14.20
2019-05-21T02:29:12.824Z,30.93
2019-05-21T02:31:14.557Z,58.97
2019-05-21T02:33:16.737Z,30.83
2019-05-21T02:35:18.571Z,21.43
2019-05-21T02:37:20.321Z,25.80
2019-05-21T02:39:22.030Z,22.60
2019-05-21T02:41:23.840Z,26.47
2019-05-21T02:43:26.099Z,26.33
2019-05-21T02:45:27.805Z,22.47
2019-05-21T02:47:29.607Z,25.37
2019-05-21T02:49:31.366Z,31.67
2019-05-21T02:51:33.178Z,23.83
2019-05-21T02:53:35.007Z,20.40
2019-05-21T02:55:36.827Z,21.43
2019-05-21T02:57:39.916Z,21.03
2019-05-21T02:59:43.366Z,25.07
2019-05-21T03:02:03.288Z,17.93
2019-05-21T03:04:05.211Z,17.53
2019-05-21T03:06:13.970Z,19.73
2019-05-21T03:08:10.961Z,20.93
2019-05-21T03:10:12.933Z,22.23
2019-05-21T03:12:15.253Z,41.10
2019-05-21T03:14:17.095Z,35.30
2019-05-21T03:16:18.880Z,36.63
2019-05-21T03:18:20.788Z,33.20
2019-05-21T03:20:22.769Z,30.40
2019-05-21T03:22:24.528Z,25.20
2019-05-21T03:24:26.229Z,20.53
2019-05-21T03:26:27.941Z,22.97
2019-05-21T03:28:29.773Z,16.70
2019-05-21T03:30:31.852Z,23.33
2019-05-21T03:32:33.783Z,43.00
2019-05-21T03:34:35.662Z,30.80
2019-05-21T03:36:37.381Z,31.47
2019-05-21T03:38:39.211Z,26.30
2019-05-21T03:40:41.629Z,27.83
2019-05-21T03:42:43.365Z,30.23
2019-05-21T03:44:59.281Z,35.00
2019-05-21T03:46:48.954Z,53.90
2019-05-21T03:48:50.848Z,29.30
2019-05-21T03:50:53.095Z,25.50
2019-05-21T03:52:55.203Z,22.20
2019-05-21T03:54:57.060Z,26.57
2019-05-21T03:56:58.812Z,21.40
2019-05-21T03:59:00.563Z,20.13
2019-05-21T04:01:02.396Z,22.70
2019-05-21T04:03:04.222Z,21.90
2019-05-21T04:05:06.523Z,22.53
2019-05-21T04:07:08.439Z,19.23
2019-05-21T04:09:10.151Z,19.20
2019-05-21T04:11:11.998Z,21.63
2019-05-21T04:13:13.792Z,18.50
2019-05-21T04:15:18.325Z,18.80
2019-05-21T04:17:34.999Z,19.33
2019-05-21T04:19:38.257Z,18.63
2019-05-21T04:21:40.109Z,17.00
2019-05-21T04:23:41.936Z,18.10
2019-05-21T04:25:43.669Z,17.97
2019-05-21T04:27:45.381Z,20.63
2019-05-21T04:29:47.109Z,20.43
2019-05-21T04:31:48.815Z,18.63
2019-05-21T04:33:50.541Z,18.47
2019-05-21T04:35:52.565Z,18.60
2019-05-21T04:37:54.414Z,17.13
2019-05-21T04:39:56.262Z,35.83
2019-05-21T04:41:58.081Z,58.60
2019-05-21T04:43:59.823Z,65.80
2019-05-21T04:46:01.698Z,32.60
2019-05-21T04:48:03.625Z,23.90
2019-05-21T04:50:05.590Z,26.13
2019-05-21T04:52:07.294Z,25.07
2019-05-21T04:54:09.110Z,24.70
2019-05-21T04:56:11.101Z,23.80
2019-05-21T04:58:13.237Z,25.80
2019-05-21T05:00:15.312Z,33.23
2019-05-21T05:02:17.051Z,53.97
2019-05-21T05:04:21.956Z,36.47
2019-05-21T05:06:22.618Z,32.13
2019-05-21T05:08:24.462Z,32.37
2019-05-21T05:10:26.501Z,30.17
2019-05-21T05:12:28.229Z,27.90
2019-05-21T05:14:29.954Z,26.50
2019-05-21T05:16:31.751Z,25.07
2019-05-21T05:18:38.990Z,26.73
2019-05-21T05:20:41.042Z,24.10
2019-05-21T05:22:42.939Z,23.67
2019-05-21T05:24:44.944Z,25.83
2019-05-21T05:26:46.854Z,22.67
2019-05-21T05:28:48.876Z,23.47
2019-05-21T05:30:51.424Z,24.40
2019-05-21T05:32:53.223Z,22.10
2019-05-21T05:34:57.168Z,23.47
2019-05-21T05:36:59.137Z,25.57
2019-05-21T05:39:01.069Z,23.17
2019-05-21T05:41:03.151Z,22.37
2019-05-21T05:43:05.006Z,22.73
2019-05-21T05:45:08.061Z,21.23
2019-05-21T05:47:09.759Z,19.97
2019-05-21T05:49:17.149Z,25.00
2019-05-21T05:51:19.159Z,21.93
2019-05-21T05:53:20.936Z,21.43
2019-05-21T05:55:22.770Z,20.77
2019-05-21T05:57:24.596Z,21.40
2019-05-21T05:59:26.498Z,21.33
2019-05-21T06:01:30.099Z,23.13
2019-05-21T06:03:31.991Z,25.00
2019-05-21T06:05:34.022Z,21.63
2019-05-21T06:07:38.815Z,24.10
2019-05-21T06:09:40.735Z,23.20
2019-05-21T06:11:42.494Z,23.13
2019-05-21T06:13:44.626Z,23.63
2019-05-21T06:15:46.819Z,21.60
2019-05-21T06:17:50.545Z,23.13
2019-05-21T06:19:52.349Z,26.43
2019-05-21T06:21:54.062Z,23.50
2019-05-21T06:23:55.766Z,22.50
2019-05-21T06:25:57.622Z,21.20
2019-05-21T06:27:59.481Z,22.20
2019-05-21T06:30:03.056Z,22.20
2019-05-21T06:32:04.918Z,23.10
2019-05-21T06:34:06.746Z,21.67
2019-05-21T06:36:08.814Z,26.00
2019-05-21T06:38:17.762Z,28.30
2019-05-21T06:40:15.382Z,33.27
2019-05-21T06:42:17.311Z,43.83
2019-05-21T06:44:19.583Z,51.90
2019-05-21T06:46:22.051Z,59.17
2019-05-21T06:48:24.444Z,36.63
2019-05-21T06:50:26.738Z,37.73
2019-05-21T06:52:28.586Z,39.70
2019-05-21T06:54:30.291Z,69.20
2019-05-21T06:56:31.997Z,45.07
2019-05-21T06:58:33.710Z,54.43
2019-05-21T07:00:35.706Z,47.90
2019-05-21T07:02:37.520Z,35.70
2019-05-21T07:04:39.282Z,34.17
2019-05-21T07:06:44.630Z,33.67
2019-05-21T07:08:45.203Z,40.57
2019-05-21T07:10:46.929Z,32.00
2019-05-21T07:12:48.830Z,30.63
2019-05-21T07:14:50.579Z,31.93
2019-05-21T07:16:52.298Z,28.47
2019-05-21T07:18:54.181Z,94.77
2019-05-21T07:20:55.982Z,67.27
2019-05-21T07:22:57.751Z,54.10
2019-05-21T07:24:59.647Z,66.03
2019-05-21T07:27:01.350Z,43.37
2019-05-21T07:29:03.281Z,41.23
2019-05-21T07:31:05.218Z,34.90
2019-05-21T07:33:07.359Z,37.17
2019-05-21T07:35:09.584Z,74.30
2019-05-21T07:37:11.415Z,123.87
2019-05-21T07:39:13.142Z,58.67
2019-05-21T07:41:15.001Z,45.33
2019-05-21T07:43:16.805Z,59.90
2019-05-21T07:45:18.617Z,52.83
2019-05-21T07:47:20.417Z,65.33
2019-05-21T07:49:22.259Z,59.23
2019-05-21T07:51:24.058Z,64.40
2019-05-21T07:53:25.773Z,54.73
2019-05-21T07:55:27.498Z,51.70
2019-05-21T07:57:29.306Z,55.13
2019-05-21T07:59:31.144Z,44.93
2019-05-21T08:01:33.070Z,62.10
2019-05-21T08:03:34.802Z,47.90
2019-05-21T08:05:36.512Z,51.13
2019-05-21T08:07:38.335Z,63.10
2019-05-21T08:12:54.981Z,31.30
2019-05-21T08:14:56.689Z,29.07
2019-05-21T08:16:59.005Z,31.50
2019-05-21T08:19:00.797Z,33.40
2019-05-21T08:21:02.618Z,32.93
2019-05-21T08:23:04.464Z,30.93
2019-05-21T08:25:06.986Z,30.67
2019-05-21T08:27:08.826Z,32.43
2019-05-21T08:29:10.750Z,29.43
2019-05-21T08:31:12.658Z,49.83
2019-05-21T08:33:14.476Z,42.80
2019-05-21T08:35:16.324Z,37.80
2019-05-21T08:37:18.070Z,32.77
2019-05-21T08:39:28.374Z,27.73
2019-05-21T08:41:23.474Z,29.50
2019-05-21T08:43:25.307Z,26.60
2019-05-21T08:45:27.148Z,26.53
2019-05-21T08:47:29.060Z,36.60
2019-05-21T08:49:33.788Z,28.77
2019-05-21T08:51:35.581Z,26.30
2019-05-21T08:53:37.401Z,50.57
2019-05-21T08:55:39.142Z,54.33
2019-05-21T08:57:41.066Z,30.97
2019-05-21T08:59:42.953Z,26.60
2019-05-21T09:01:44.855Z,22.07
2019-05-21T09:03:46.558Z,23.03
2019-05-21T09:05:48.261Z,20.30
2019-05-21T09:07:53.101Z,19.50
2019-05-21T09:09:53.953Z,21.00
2019-05-21T09:11:55.682Z,19.47
2019-05-21T09:13:57.655Z,17.97
2019-05-21T09:15:59.402Z,19.17
2019-05-21T09:18:01.089Z,19.33
2019-05-21T09:20:04.379Z,19.47
2019-05-21T09:22:06.203Z,19.30
2019-05-21T09:24:08.063Z,19.33
2019-05-21T09:26:09.946Z,19.63
2019-05-21T09:28:11.689Z,19.43
2019-05-21T09:30:15.101Z,20.30
2019-05-21T09:32:16.829Z,20.47
2019-05-21T09:34:18.661Z,21.43
2019-05-21T09:36:20.465Z,18.23
2019-05-21T09:38:22.200Z,20.57
2019-05-21T09:40:24.461Z,22.60
2019-05-21T09:42:26.175Z,22.50
2019-05-21T09:44:27.927Z,19.43
2019-05-21T09:46:29.749Z,19.50
2019-05-21T09:48:31.474Z,19.83
2019-05-21T09:50:33.405Z,23.57
2019-05-21T09:52:35.311Z,23.33
2019-05-21T09:54:37.031Z,20.30
2019-05-21T09:56:38.921Z,21.27
2019-05-21T09:58:44.466Z,21.30
2019-05-21T10:01:15.412Z,22.47
2019-05-21T10:03:19.482Z,20.77
2019-05-21T10:05:21.317Z,21.40
2019-05-21T10:07:38.171Z,21.17
2019-05-21T10:09:27.076Z,22.70
2019-05-21T10:11:28.787Z,23.33
2019-05-21T10:13:30.586Z,23.17
2019-05-21T10:15:32.514Z,24.10
2019-05-21T10:17:34.218Z,23.07
2019-05-21T10:19:36.275Z,21.80
2019-05-21T10:21:38.114Z,21.37
2019-05-21T10:23:39.830Z,22.90
2019-05-21T10:25:41.553Z,21.53
2019-05-21T10:27:43.571Z,21.60
2019-05-21T10:29:45.319Z,21.20
2019-05-21T10:31:47.033Z,22.33
2019-05-21T10:33:48.857Z,22.07
2019-05-21T10:35:50.733Z,24.50
2019-05-21T10:37:55.295Z,22.80
2019-05-21T10:39:56.213Z,21.77
2019-05-21T10:41:57.922Z,22.37
2019-05-21T10:43:59.842Z,24.40
2019-05-21T10:46:01.665Z,22.53
2019-05-21T10:48:03.678Z,24.90
2019-05-21T10:50:06.242Z,24.30
2019-05-21T10:52:08.016Z,23.67
2019-05-21T10:54:09.831Z,23.43
2019-05-21T10:56:11.637Z,24.03
2019-05-21T10:58:13.559Z,23.30
2019-05-21T11:00:22.775Z,23.90
2019-05-21T11:02:33.087Z,24.20
2019-05-21T11:04:56.365Z,23.13
2019-05-21T11:06:58.185Z,24.70
2019-05-21T11:08:59.987Z,22.83
2019-05-21T11:11:01.978Z,25.30
2019-05-21T11:13:03.901Z,25.33
2019-05-21T11:15:06.079Z,24.27
2019-05-21T11:17:10.717Z,25.33
2019-05-21T11:19:12.750Z,28.50
2019-05-21T11:21:14.554Z,26.60
2019-05-21T11:23:16.274Z,26.30
2019-05-21T11:25:18.106Z,25.60
2019-05-21T11:27:20.016Z,25.67
2019-05-21T11:29:21.731Z,26.17
2019-05-21T11:31:23.446Z,26.20
2019-05-21T11:33:25.825Z,28.40
2019-05-21T11:35:27.753Z,25.47
2019-05-21T11:37:29.606Z,26.60
2019-05-21T11:39:31.509Z,25.70
2019-05-21T11:41:35.202Z,29.60
2019-05-21T11:43:36.921Z,27.20
2019-05-21T11:45:38.746Z,26.10
2019-05-21T11:47:40.583Z,29.70
2019-05-21T11:49:42.727Z,26.77
2019-05-21T11:51:44.573Z,33.10
2019-05-21T11:53:46.510Z,27.40
2019-05-21T11:55:48.412Z,25.53
2019-05-21T11:57:50.209Z,26.47
2019-05-21T11:59:51.934Z,25.70
2019-05-21T12:01:54.066Z,31.80
2019-05-21T12:03:55.788Z,34.60
2019-05-21T12:05:57.795Z,26.97
2019-05-21T12:07:59.646Z,29.93
2019-05-21T12:10:01.785Z,29.43
2019-05-21T12:12:03.618Z,29.33
2019-05-21T12:14:05.451Z,24.43
2019-05-21T12:16:07.195Z,26.77
2019-05-21T12:18:09.086Z,26.10
2019-05-21T12:20:11.699Z,26.80
2019-05-21T12:22:13.417Z,24.47
2019-05-21T12:24:15.490Z,26.50
2019-05-21T12:26:17.230Z,23.93
2019-05-21T12:28:19.140Z,26.53
2019-05-21T12:30:22.424Z,26.17
2019-05-21T12:32:24.237Z,23.80
2019-05-21T12:34:25.965Z,29.00
2019-05-21T12:36:27.861Z,25.13
2019-05-21T12:38:29.617Z,24.40
2019-05-21T12:40:31.566Z,26.97
2019-05-21T12:42:33.310Z,25.20
2019-05-21T12:44:35.120Z,26.27
2019-05-21T12:46:36.842Z,23.47
2019-05-21T12:48:38.757Z,24.93
2019-05-21T12:50:40.698Z,27.43
2019-05-21T12:52:42.618Z,24.40
2019-05-21T12:54:44.326Z,24.70
2019-05-21T12:56:46.076Z,26.10
2019-05-21T12:58:47.882Z,24.47
2019-05-21T13:00:49.709Z,22.20
2019-05-21T13:02:51.452Z,24.93
2019-05-21T13:04:53.212Z,27.73
2019-05-21T13:06:55.009Z,24.03
2019-05-21T13:08:56.765Z,25.73
2019-05-21T13:10:58.505Z,28.70
2019-05-21T13:13:00.363Z,25.70
2019-05-21T13:15:02.434Z,29.97
2019-05-21T13:17:04.389Z,27.90
2019-05-21T13:19:10.998Z,24.20
2019-05-21T13:21:10.147Z,27.83
2019-05-21T13:23:11.963Z,26.70
2019-05-21T13:25:13.773Z,26.67
2019-05-21T13:27:15.593Z,26.90
2019-05-21T13:29:17.323Z,28.00
2019-05-21T13:31:19.030Z,27.73
2019-05-21T13:33:20.985Z,29.77
2019-05-21T13:35:22.729Z,30.03
2019-05-21T13:37:24.431Z,29.40
2019-05-21T13:39:26.274Z,33.67
2019-05-21T13:41:28.126Z,30.23
2019-05-21T13:43:29.845Z,36.70
2019-05-21T13:45:31.575Z,32.93
2019-05-21T13:47:33.374Z,30.87
2019-05-21T13:49:35.363Z,33.17
2019-05-21T13:51:37.237Z,29.87
2019-05-21T13:53:38.941Z,31.53
2019-05-21T13:55:40.641Z,32.80
2019-05-21T13:57:42.382Z,32.17
2019-05-21T13:59:51.633Z,32.33
2019-05-21T14:01:53.667Z,27.90
2019-05-21T14:03:55.781Z,34.13
2019-05-21T14:05:57.498Z,28.87
2019-05-21T14:07:59.202Z,29.60
2019-05-21T14:10:19.106Z,31.63
2019-05-21T14:12:11.385Z,31.53
2019-05-21T14:14:13.294Z,29.70
2019-05-21T14:16:15.003Z,36.10
2019-05-21T14:18:17.269Z,31.63
2019-05-21T14:20:21.735Z,31.70
2019-05-21T14:22:23.447Z,31.43
2019-05-21T14:24:25.275Z,30.00
2019-05-21T14:26:27.079Z,39.43
2019-05-21T14:28:28.817Z,33.73
2019-05-21T14:30:30.624Z,36.97
2019-05-21T14:32:32.349Z,42.13
2019-05-21T14:34:34.137Z,40.40
2019-05-21T14:36:36.074Z,41.77
2019-05-21T14:38:37.878Z,34.43
2019-05-21T14:40:39.726Z,35.80
2019-05-21T14:42:56.886Z,37.57
2019-05-21T14:44:45.175Z,38.60
2019-05-21T14:46:46.889Z,39.33
2019-05-21T14:48:48.650Z,41.43
2019-05-21T14:50:50.385Z,39.07
2019-05-21T14:52:52.508Z,45.17
2019-05-21T14:54:54.402Z,39.63
2019-05-21T14:56:56.103Z,46.07
2019-05-21T14:58:57.810Z,40.97
2019-05-21T15:00:59.536Z,45.60
2019-05-21T15:03:01.384Z,40.87
2019-05-21T15:05:03.520Z,37.13
2019-05-21T15:07:05.372Z,38.93
2019-05-21T15:09:07.185Z,47.27
2019-05-21T15:11:08.899Z,42.83
2019-05-21T15:13:10.611Z,46.63
2019-05-21T15:15:12.850Z,41.17
2019-05-21T15:17:14.655Z,40.93
2019-05-21T15:19:16.880Z,40.27
2019-05-21T15:21:23.753Z,37.43
2019-05-21T15:23:25.487Z,39.77
2019-05-21T15:25:27.318Z,31.80
2019-05-21T15:27:29.121Z,38.00
2019-05-21T15:29:30.830Z,37.67
2019-05-21T15:31:32.660Z,34.27
2019-05-21T15:33:34.379Z,34.00
2019-05-21T15:35:36.086Z,32.57
2019-05-21T15:37:37.824Z,36.73
2019-05-21T15:39:39.987Z,34.60
2019-05-21T15:41:41.809Z,35.57
2019-05-21T15:43:43.538Z,36.23
2019-05-21T15:45:45.420Z,31.60
2019-05-21T15:47:47.276Z,31.23
2019-05-21T15:49:49.131Z,27.47
2019-05-21T15:51:50.979Z,31.20
2019-05-21T15:53:52.689Z,52.83
2019-05-21T15:55:54.597Z,40.57
2019-05-21T15:57:56.367Z,29.60
2019-05-21T15:59:58.339Z,31.90
2019-05-21T16:02:00.047Z,23.40
2019-05-21T16:04:01.971Z,29.40
2019-05-21T16:06:03.892Z,24.03
2019-05-21T16:08:05.621Z,23.97
2019-05-21T16:48:18.079Z,34.23
2019-05-21T16:50:20.573Z,34.90
2019-05-21T17:35:54.947Z,26.63
2019-05-21T17:37:56.653Z,31.60
2019-05-21T17:39:58.481Z,26.67
2019-05-21T17:42:13.287Z,26.10
2019-05-21T17:44:04.153Z,32.87
2019-05-21T17:46:05.869Z,26.30
2019-05-21T17:51:11.676Z,26.30
2019-05-21T18:13:00.325Z,26.70
2019-05-21T18:15:15.575Z,21.00
2019-05-21T18:17:19.961Z,27.10
2019-05-21T18:19:50.493Z,19.37
2019-05-21T18:21:54.030Z,22.40
2019-05-21T18:24:38.491Z,24.10
2019-05-21T18:26:46.925Z,20.10
2019-05-21T18:28:57.375Z,18.60
2019-05-21T18:31:02.771Z,19.10
2019-05-21T18:33:05.011Z,20.93
2019-05-21T18:35:07.478Z,20.03
2019-05-21T18:37:10.164Z,16.47
2019-05-21T18:39:12.123Z,20.43
2019-05-21T18:41:14.210Z,24.43
2019-05-21T18:43:16.594Z,23.30
2019-05-21T18:59:05.134Z,19.07
2019-05-21T19:01:08.268Z,19.63
2019-05-21T19:03:25.323Z,18.23
2019-05-21T19:08:43.759Z,21.07
2019-05-21T19:10:45.720Z,17.67
2019-05-21T19:12:47.682Z,18.43
2019-05-21T19:14:49.535Z,20.33
2019-05-21T19:16:51.527Z,18.60
2019-05-21T19:18:53.276Z,21.87
2019-05-21T19:20:55.032Z,21.73
2019-05-21T19:22:57.048Z,22.40
2019-05-21T19:24:58.785Z,18.70
2019-05-21T19:27:00.689Z,20.20
2019-05-21T19:29:02.625Z,20.30
2019-05-21T19:31:04.557Z,21.90
2019-05-21T19:33:06.412Z,21.40
2019-05-21T19:35:08.581Z,19.00
2019-05-21T19:37:10.487Z,19.90
2019-05-21T19:39:12.234Z,18.17
2019-05-21T19:41:14.224Z,19.43
2019-05-21T19:43:16.114Z,20.17
2019-05-21T19:45:43.815Z,23.97
2019-05-21T19:47:45.659Z,25.43
2019-05-21T19:49:47.398Z,23.30
2019-05-21T19:51:49.135Z,22.70
2019-05-21T19:53:51.170Z,24.70
2019-05-21T19:55:53.190Z,20.93
2019-05-21T19:57:54.946Z,21.20
2019-05-21T19:59:56.811Z,22.90
2019-05-21T20:01:59.134Z,21.63
2019-05-21T20:04:01.069Z,19.53
2019-05-21T20:06:04.890Z,22.50
2019-05-21T20:08:06.726Z,20.00
2019-05-21T20:10:08.989Z,20.13
2019-05-21T20:12:11.969Z,20.73
2019-05-21T20:14:14.023Z,17.40
2019-05-21T20:16:18.317Z,18.17
2019-05-21T20:18:22.178Z,17.40
2019-05-21T20:20:25.971Z,20.40
2019-05-21T20:22:27.933Z,21.33
2019-05-21T20:24:29.881Z,16.70
2019-05-21T20:26:33.757Z,15.70
2019-05-21T20:28:36.436Z,20.97
2019-05-21T20:30:38.539Z,18.07
2019-05-21T20:32:42.212Z,14.50
2019-05-21T20:34:44.245Z,14.00
2019-05-21T20:36:46.112Z,18.27
2019-05-21T20:38:48.161Z,18.73
2019-05-21T20:40:51.421Z,20.17
2019-05-21T20:42:54.185Z,20.07
2019-05-21T20:44:56.417Z,17.30
2019-05-21T20:46:58.269Z,21.70
2019-05-21T20:49:30.774Z,18.80
2019-05-21T20:52:19.315Z,21.10
2019-05-21T20:54:23.189Z,21.30
2019-05-21T20:56:26.037Z,21.67
2019-05-21T20:58:28.299Z,24.53
2019-05-21T21:00:40.040Z,23.80
2019-05-21T21:02:43.967Z,23.90
2019-05-21T21:04:46.205Z,23.40
2019-05-21T21:06:48.065Z,20.27
2019-05-21T21:08:50.397Z,22.43
2019-05-21T21:10:52.247Z,23.70
2019-05-21T21:12:54.575Z,22.50
2019-05-21T21:14:56.871Z,19.73
2019-05-21T21:16:58.865Z,20.83
2019-05-21T21:19:01.126Z,17.80
2019-05-21T21:21:03.109Z,17.73
2019-05-21T21:23:05.450Z,21.10
2019-05-21T21:25:09.636Z,19.20
2019-05-21T21:27:13.290Z,19.73
2019-05-21T21:29:15.126Z,17.07
2019-05-21T21:31:17.665Z,15.83
2019-05-21T21:33:19.950Z,16.53
2019-05-21T21:35:22.777Z,14.57
2019-05-21T21:37:24.526Z,21.90
2019-05-21T21:39:26.294Z,16.47
2019-05-21T21:41:28.926Z,15.17
2019-05-21T21:43:30.686Z,17.47
2019-05-21T21:45:32.637Z,16.60
2019-05-21T21:47:34.598Z,17.23
2019-05-21T21:49:36.841Z,18.53
2019-05-21T21:51:39.529Z,17.93
2019-05-21T21:53:41.536Z,22.30
2019-05-21T21:55:43.458Z,18.17
2019-05-21T21:57:45.338Z,25.30
2019-05-21T21:59:47.294Z,27.77
2019-05-21T22:01:53.807Z,28.57
2019-05-21T22:04:00.809Z,16.13
2019-05-21T22:06:07.586Z,15.63
2019-05-21T22:08:10.155Z,17.07
2019-05-21T22:10:12.629Z,15.40
2019-05-21T22:12:16.873Z,14.50
2019-05-21T22:14:19.530Z,17.07
2019-05-21T22:16:23.182Z,42.80
2019-05-21T22:18:25.225Z,32.30
2019-05-21T22:20:27.195Z,16.83
2019-05-21T22:22:29.204Z,14.47
2019-05-21T22:24:31.306Z,13.87
2019-05-21T22:26:33.206Z,14.70
2019-05-21T22:28:35.253Z,14.47
2019-05-21T22:30:37.250Z,25.53
2019-05-21T22:32:39.280Z,38.27
2019-05-21T22:34:41.362Z,17.83
2019-05-21T22:36:43.157Z,16.10
2019-05-21T22:38:44.921Z,16.00
2019-05-21T22:40:47.193Z,15.40
2019-05-21T22:42:48.918Z,15.53
2019-05-21T22:45:06.347Z,16.77
2019-05-21T22:46:54.517Z,20.03
2019-05-21T22:48:56.259Z,19.50
2019-05-21T22:50:57.994Z,15.43
2019-05-21T22:52:59.959Z,17.90
2019-05-21T22:55:02.151Z,15.20
2019-05-21T22:57:04.465Z,15.23
2019-05-21T22:59:06.400Z,17.37
2019-05-21T23:01:09.970Z,15.20
2019-05-21T23:03:11.759Z,23.37
2019-05-21T23:05:13.847Z,25.23
2019-05-21T23:07:15.674Z,22.07
2019-05-21T23:09:17.614Z,23.40
2019-05-21T23:11:22.860Z,21.23
2019-05-21T23:13:23.720Z,23.20
2019-05-21T23:15:25.816Z,19.20
2019-05-21T23:17:28.313Z,23.20
2019-05-21T23:19:31.248Z,21.60
2019-05-21T23:21:34.486Z,23.93
2019-05-21T23:23:36.833Z,24.33
2019-05-21T23:25:40.451Z,24.30
2019-05-21T23:27:42.791Z,33.70
2019-05-21T23:29:44.974Z,51.60
2019-05-21T23:31:47.108Z,26.40
2019-05-21T23:33:49.159Z,21.20
2019-05-21T23:35:51.597Z,25.23
2019-05-21T23:37:55.743Z,21.63
2019-05-21T23:39:57.868Z,21.30
2019-05-21T23:42:00.930Z,21.00
2019-05-21T23:44:03.102Z,26.93
2019-05-21T23:46:05.589Z,21.13
2019-05-21T23:48:10.153Z,20.97
2019-05-21T23:50:13.698Z,22.27
2019-05-21T23:52:16.141Z,27.10
2019-05-21T23:54:17.862Z,26.40
2019-05-21T23:56:19.794Z,45.43
2019-05-21T23:58:21.835Z,29.40
